zuzkalight.com alexa rank chart, zuzkalight.com alexa rank daily changes

zuzkalight.com alexa rank chart, zuzkalight.com alexa rank daily changes

zuzkalight.com
Actual rank:
195 663

RANK HISTORY

Date Rank Diff
2018/04/19 195 663 +35 929
2018/04/18 159 734 +67 289
2018/04/17 92 445 -85 002
2018/04/16 177 447 -81 648
2018/04/15 259 095 +76 187
2018/04/14 182 908 -126 608
2018/04/13 309 516 +90 359
2018/04/12 219 157 -33 035
2018/04/11 252 192 +38 774
2018/04/10 213 418 +41 516
2018/04/09 171 902 -51 233
2018/04/08 223 135 +2 169
2018/04/07 220 966 -25 733
2018/04/06 246 699 +108 902
2018/04/05 137 797 +60 919
2018/04/04 76 878 -101 098
2018/04/03 177 976 -293 872
2018/04/02 471 848 +301 057
2018/04/01 170 791 +157
2018/03/31 170 634 -37 375
2018/03/30 208 009 +60 965
2018/03/29 147 044 +74 280
2018/03/28 72 764 -71 779
2018/03/27 144 543 -79 137
2018/03/26 223 680 +2 644
2018/03/25 221 036 -33 164
2018/03/24 254 200 +58 233
2018/03/23 195 967 +53 972
2018/03/22 141 995 -56 024
2018/03/21 198 019 +68 041
2018/03/20 129 978 +1 198
2018/03/19 128 780 -24 001
2018/03/18 152 781 +18 692
2018/03/17 134 089 -63 902
2018/03/16 197 991 +65 670
2018/03/15 132 321 +50 513
2018/03/14 81 808 -20 794
2018/03/13 102 602 -93 703
2018/03/12 196 305 -20 875
2018/03/11 217 180 +91 605
2018/03/10 125 575 -311 222
2018/03/09 436 797 +277 105
2018/03/08 159 692 +44 321
2018/03/07 115 371 -14 340
2018/03/06 129 711 -47 786
2018/03/05 177 497 -22 871
2018/03/04 200 368 +66 549
2018/03/03 133 819 -163 612
2018/03/02 297 431 +112 450
2018/03/01 184 981 +56 901
2018/02/28 128 080 +65 781
2018/02/27 62 299 -115 423
2018/02/26 177 722 +8 416
2018/02/25 169 306 +56 354
2018/02/24 112 952 -25 450
2018/02/23 138 402 +27 464
2018/02/22 110 938 +31 391
2018/02/21 79 547 -118 951
2018/02/20 198 498 -78 904
2018/02/19 277 402 +166 016
2018/02/18 111 386

WIDGET FOR YOUR SITE

DOMAINS WITH THE NEAREST RANK

Domain Rank
liveleap.com 195 658
lacajita.xyz 195 659
protyre.co.uk 195 660
freefeast.info 195 661
tacticalholsters.com 195 662
zuzkalight.com 195 663
emedny.org 195 664
suckittrees.com 195 665
jntuaresults.azurewebsites.net 195 666
blazingseollc.com 195 667
cawi.fr 195 668

DOMAINS WITH THE NEAREST RANK BY TLD .com

Domain Rank
hothbricks.com 195 654
java-samples.com 195 655
sm64hacks.com 195 656
liveleap.com 195 658
tacticalholsters.com 195 662
zuzkalight.com 195 663
suckittrees.com 195 665
blazingseollc.com 195 667
placed.com 195 670
shen-nong.com 195 673
audiokinetic.com 195 674